createdAt,value
2018-02-15T00:02:11.385Z,33.80
2018-02-15T00:04:38.931Z,34.13
2018-02-15T00:07:06.416Z,36.08
2018-02-15T00:09:33.892Z,37.58
2018-02-15T00:12:01.374Z,40.30
2018-02-15T00:14:28.841Z,35.30
2018-02-15T00:16:56.344Z,35.33
2018-02-15T00:19:23.817Z,29.92
2018-02-15T00:21:51.405Z,34.08
2018-02-15T00:24:18.877Z,33.85
2018-02-15T00:26:46.346Z,34.03
2018-02-15T00:29:13.847Z,33.55
2018-02-15T00:31:41.332Z,35.43
2018-02-15T00:34:08.810Z,36.00
2018-02-15T00:36:36.277Z,39.33
2018-02-15T00:39:03.754Z,36.80
2018-02-15T00:41:31.231Z,31.40
2018-02-15T00:43:58.741Z,33.72
2018-02-15T00:46:26.213Z,28.30
2018-02-15T00:48:54.234Z,34.73
2018-02-15T00:51:21.793Z,31.05
2018-02-15T00:53:49.373Z,28.30
2018-02-15T00:56:16.841Z,33.75
2018-02-15T00:58:44.340Z,34.42
2018-02-15T01:01:11.814Z,38.95
2018-02-15T01:03:39.300Z,33.50
2018-02-15T01:06:06.777Z,34.97
2018-02-15T01:08:34.269Z,27.62
2018-02-15T01:11:01.737Z,28.27
2018-02-15T01:13:29.238Z,30.03
2018-02-15T01:15:56.710Z,30.95
2018-02-15T01:18:25.001Z,29.77
2018-02-15T01:20:52.466Z,27.87
2018-02-15T01:23:19.947Z,29.48
2018-02-15T01:25:47.461Z,31.48
2018-02-15T01:28:15.041Z,27.08
2018-02-15T01:30:43.344Z,27.77
2018-02-15T01:33:10.823Z,29.53
2018-02-15T01:35:38.337Z,26.08
2018-02-15T01:38:05.805Z,25.27
2018-02-15T01:40:33.373Z,24.42
2018-02-15T01:43:00.846Z,29.25
2018-02-15T01:45:28.321Z,29.65
2018-02-15T01:47:55.820Z,27.85
2018-02-15T01:50:24.817Z,27.67
2018-02-15T01:52:52.321Z,28.12
2018-02-15T01:55:19.792Z,30.03
2018-02-15T01:57:47.277Z,30.10
2018-02-15T02:00:14.763Z,31.07
2018-02-15T02:02:42.241Z,27.73
2018-02-15T02:05:09.713Z,25.48
2018-02-15T02:07:37.183Z,32.08
2018-02-15T02:10:04.649Z,25.67
2018-02-15T02:12:32.117Z,28.40
2018-02-15T02:15:00.383Z,28.97
2018-02-15T02:17:27.853Z,27.43
2018-02-15T02:19:55.322Z,30.93
2018-02-15T02:22:22.862Z,28.67
2018-02-15T02:24:51.105Z,29.13
2018-02-15T02:27:18.569Z,29.73
2018-02-15T02:29:46.042Z,28.40
2018-02-15T02:32:13.565Z,25.80
2018-02-15T02:34:41.035Z,25.83
2018-02-15T02:37:08.511Z,27.58
2018-02-15T02:39:35.985Z,28.40
2018-02-15T02:42:03.481Z,29.23
2018-02-15T02:44:30.945Z,29.43
2018-02-15T02:46:58.418Z,30.27
2018-02-15T02:49:25.881Z,25.00
2018-02-15T02:51:53.715Z,28.47
2018-02-15T02:54:21.207Z,29.53
2018-02-15T02:56:48.678Z,29.40
2018-02-15T02:59:16.161Z,29.27
2018-02-15T03:01:43.637Z,28.07
2018-02-15T03:04:11.102Z,28.67
2018-02-15T03:06:38.609Z,28.10
2018-02-15T03:09:06.083Z,26.17
2018-02-15T03:11:34.313Z,30.23
2018-02-15T03:14:01.869Z,32.77
2018-02-15T03:16:29.462Z,26.77
2018-02-15T03:18:56.941Z,27.03
2018-02-15T03:21:24.725Z,30.13
2018-02-15T03:23:52.204Z,27.00
2018-02-15T03:26:19.682Z,29.93
2018-02-15T03:28:47.167Z,32.57
2018-02-15T03:31:14.630Z,53.77
2018-02-15T03:33:42.099Z,33.77
2018-02-15T03:36:09.609Z,39.47
2018-02-15T03:38:37.093Z,33.23
2018-02-15T03:41:04.553Z,39.40
2018-02-15T03:43:32.023Z,36.80
2018-02-15T03:45:59.542Z,33.60
2018-02-15T03:48:27.010Z,36.47
2018-02-15T03:50:55.186Z,35.23
2018-02-15T03:53:22.878Z,36.80
2018-02-15T03:55:50.343Z,41.83
2018-02-15T03:58:17.872Z,39.23
2018-02-15T04:00:45.345Z,40.30
2018-02-15T04:03:12.837Z,36.63
2018-02-15T04:05:40.303Z,37.67
2018-02-15T04:08:07.804Z,40.33
2018-02-15T04:10:36.106Z,36.47
2018-02-15T04:13:03.561Z,35.47
2018-02-15T04:15:31.067Z,33.57
2018-02-15T04:17:58.533Z,37.00
2018-02-15T04:20:25.999Z,39.00
2018-02-15T04:22:53.882Z,37.60
2018-02-15T04:25:21.341Z,39.70
2018-02-15T04:27:49.598Z,38.47
2018-02-15T04:30:17.069Z,38.13
2018-02-15T04:32:44.561Z,43.20
2018-02-15T04:35:12.074Z,43.83
2018-02-15T04:37:39.538Z,44.30
2018-02-15T04:40:07.007Z,49.10
2018-02-15T04:42:34.471Z,47.60
2018-02-15T04:45:01.953Z,42.70
2018-02-15T04:47:29.453Z,48.30
2018-02-15T04:49:56.954Z,50.80
2018-02-15T04:52:25.010Z,46.30
2018-02-15T04:54:52.515Z,45.73
2018-02-15T04:57:19.980Z,48.07
2018-02-15T04:59:47.473Z,42.67
2018-02-15T05:02:14.958Z,45.23
2018-02-15T05:04:42.513Z,45.33
2018-02-15T05:07:10.068Z,46.33
2018-02-15T05:09:37.555Z,41.57
2018-02-15T05:12:05.787Z,50.20
2018-02-15T05:14:33.251Z,42.67
2018-02-15T05:17:00.713Z,41.07
2018-02-15T05:19:28.948Z,40.90
2018-02-15T05:21:56.463Z,41.57
2018-02-15T05:24:23.933Z,40.93
2018-02-15T05:26:51.512Z,41.87
2018-02-15T05:29:18.976Z,46.30
2018-02-15T05:31:46.441Z,46.10
2018-02-15T05:34:13.909Z,49.10
2018-02-15T05:36:42.149Z,43.70
2018-02-15T05:39:09.622Z,43.70
2018-02-15T05:41:37.103Z,41.93
2018-02-15T05:44:04.565Z,41.40
2018-02-15T05:46:32.028Z,47.13
2018-02-15T05:49:00.277Z,44.17
2018-02-15T05:51:27.784Z,44.43
2018-02-15T05:53:55.269Z,44.80
2018-02-15T05:56:22.877Z,44.37
2018-02-15T05:58:50.359Z,42.83
2018-02-15T06:01:18.606Z,42.30
2018-02-15T06:03:46.086Z,40.50
2018-02-15T06:06:13.573Z,43.77
2018-02-15T06:08:41.057Z,46.87
2018-02-15T06:11:08.537Z,42.00
2018-02-15T06:13:36.171Z,44.97
2018-02-15T06:16:04.403Z,44.03
2018-02-15T06:18:31.912Z,45.37
2018-02-15T06:20:59.389Z,42.00
2018-02-15T06:23:26.865Z,49.77
2018-02-15T06:25:54.665Z,47.67
2018-02-15T06:28:22.185Z,47.00
2018-02-15T06:30:50.442Z,49.70
2018-02-15T06:33:17.910Z,47.87
2018-02-15T06:35:45.405Z,51.40
2018-02-15T06:38:12.877Z,45.63
2018-02-15T06:40:40.345Z,42.67
2018-02-15T06:43:07.842Z,44.60
2018-02-15T06:45:35.325Z,44.30
2018-02-15T06:48:02.791Z,45.87
2018-02-15T06:50:30.259Z,45.03
2018-02-15T06:52:57.726Z,43.13
2018-02-15T06:55:25.967Z,43.27
2018-02-15T06:57:54.043Z,43.07
2018-02-15T07:00:21.543Z,41.20
2018-02-15T07:02:49.014Z,42.20
2018-02-15T07:05:16.509Z,42.40
2018-02-15T07:07:44.107Z,42.13
2018-02-15T07:10:12.390Z,43.27
2018-02-15T07:12:39.973Z,42.47
2018-02-15T07:15:07.853Z,42.13
2018-02-15T07:17:35.351Z,41.87
2018-02-15T07:20:02.835Z,41.60
2018-02-15T07:22:30.317Z,46.60
2018-02-15T07:24:57.817Z,39.03
2018-02-15T07:27:25.290Z,42.43
2018-02-15T07:29:52.973Z,42.40
2018-02-15T07:32:20.617Z,41.60
2018-02-15T07:34:48.129Z,42.50
2018-02-15T07:37:15.693Z,44.53
2018-02-15T07:39:43.975Z,49.90
2018-02-15T07:42:11.528Z,44.80
2018-02-15T07:44:38.994Z,37.60
2018-02-15T07:47:06.691Z,44.67
2018-02-15T07:49:34.150Z,40.43
2018-02-15T07:52:01.761Z,42.53
2018-02-15T07:54:29.240Z,40.37
2018-02-15T07:56:56.702Z,40.40
2018-02-15T07:59:25.000Z,43.93
2018-02-15T08:01:52.509Z,41.20
2018-02-15T08:04:19.973Z,39.60
2018-02-15T08:06:47.444Z,40.60
2018-02-15T08:09:14.945Z,40.90
2018-02-15T08:11:42.433Z,39.07
2018-02-15T08:14:09.928Z,36.40
2018-02-15T08:16:37.505Z,43.07
2018-02-15T08:19:05.010Z,37.37
2018-02-15T08:21:32.487Z,38.23
2018-02-15T08:23:59.954Z,38.20
2018-02-15T08:26:27.409Z,38.20
2018-02-15T08:28:54.939Z,42.23
2018-02-15T08:31:22.398Z,39.20
2018-02-15T08:33:49.897Z,43.50
2018-02-15T08:36:17.356Z,39.33
2018-02-15T08:38:44.857Z,41.20
2018-02-15T08:41:12.461Z,37.53
2018-02-15T08:43:39.933Z,38.20
2018-02-15T08:46:07.406Z,36.30
2018-02-15T08:48:34.858Z,38.33
2018-02-15T08:51:02.317Z,38.20
2018-02-15T08:53:29.774Z,36.20
2018-02-15T08:55:57.228Z,35.03
2018-02-15T08:58:25.382Z,36.07
2018-02-15T09:00:54.190Z,33.17
2018-02-15T09:03:22.426Z,36.77
2018-02-15T09:05:49.930Z,39.13
2018-02-15T09:08:17.381Z,33.77
2018-02-15T09:10:44.894Z,36.30
2018-02-15T09:13:12.379Z,37.30
2018-02-15T09:15:39.858Z,32.40
2018-02-15T09:18:07.310Z,37.00
2018-02-15T09:20:34.777Z,33.20
2018-02-15T09:23:03.081Z,37.23
2018-02-15T09:25:30.598Z,33.03
2018-02-15T09:27:58.057Z,34.13
2018-02-15T09:30:25.526Z,34.63
2018-02-15T09:32:52.996Z,31.10
2018-02-15T09:35:21.222Z,33.13
2018-02-15T09:37:48.723Z,29.83
2018-02-15T09:40:16.205Z,33.17
2018-02-15T09:42:43.688Z,29.33
2018-02-15T09:45:11.198Z,34.07
2018-02-15T09:47:38.646Z,32.00
2018-02-15T09:50:06.111Z,31.30
2018-02-15T09:52:33.570Z,33.07
2018-02-15T09:55:01.811Z,29.03
2018-02-15T09:57:29.292Z,31.77
2018-02-15T09:59:56.763Z,29.97
2018-02-15T10:02:25.065Z,29.40
2018-02-15T10:04:52.517Z,29.73
2018-02-15T10:07:19.978Z,28.10
2018-02-15T10:09:48.203Z,30.67
2018-02-15T10:12:15.716Z,32.37
2018-02-15T10:14:43.202Z,30.37
2018-02-15T10:17:10.679Z,30.87
2018-02-15T10:19:38.133Z,31.53
2018-02-15T10:22:05.645Z,27.70
2018-02-15T10:24:33.122Z,34.47
2018-02-15T10:27:00.608Z,30.07
2018-02-15T10:29:28.095Z,29.50
2018-02-15T10:31:55.575Z,30.60
2018-02-15T10:34:23.415Z,30.87
2018-02-15T10:36:51.662Z,33.00
2018-02-15T10:39:19.134Z,31.03
2018-02-15T10:41:46.650Z,31.03
2018-02-15T10:44:14.112Z,31.67
2018-02-15T10:46:41.570Z,29.67
2018-02-15T10:49:09.079Z,32.30
2018-02-15T10:51:36.545Z,28.03
2018-02-15T10:54:04.002Z,26.80
2018-02-15T10:56:32.243Z,28.60
2018-02-15T10:58:59.704Z,32.00
2018-02-15T11:01:32.846Z,27.57
2018-02-15T11:04:04.289Z,25.33
2018-02-15T11:06:31.755Z,26.97
2018-02-15T11:08:59.995Z,25.87
2018-02-15T11:11:27.478Z,28.47
2018-02-15T11:13:54.971Z,24.83
2018-02-15T11:16:22.545Z,28.53
2018-02-15T11:18:51.525Z,27.37
2018-02-15T11:21:18.989Z,28.37
2018-02-15T11:23:46.522Z,27.53
2018-02-15T11:26:13.978Z,24.53
2018-02-15T11:28:41.485Z,24.07
2018-02-15T11:31:08.946Z,25.77
2018-02-15T11:33:36.414Z,23.03
2018-02-15T11:36:03.895Z,24.43
2018-02-15T11:38:31.353Z,24.47
2018-02-15T11:40:59.609Z,23.37
2018-02-15T11:43:27.097Z,22.20
2018-02-15T11:45:55.279Z,24.27
2018-02-15T11:48:22.922Z,19.67
2018-02-15T11:50:51.182Z,21.83
2018-02-15T11:53:18.645Z,20.40
2018-02-15T11:55:46.106Z,24.90
2018-02-15T11:58:13.577Z,21.40
2018-02-15T12:00:41.034Z,18.47
2018-02-15T12:03:09.299Z,19.37
2018-02-15T12:05:36.758Z,22.10
2018-02-15T12:08:04.253Z,19.70
2018-02-15T12:10:31.719Z,20.90
2018-02-15T12:12:59.232Z,20.60
2018-02-15T12:15:26.706Z,18.00
2018-02-15T12:17:54.877Z,20.17
2018-02-15T12:20:22.383Z,16.90
2018-02-15T12:22:49.866Z,17.77
2018-02-15T12:25:17.326Z,20.27
2018-02-15T12:27:44.825Z,19.07
2018-02-15T12:30:12.286Z,16.13
2018-02-15T12:32:39.742Z,18.70
2018-02-15T12:35:07.991Z,17.30
2018-02-15T12:37:35.469Z,14.53
2018-02-15T12:40:02.953Z,16.63
2018-02-15T12:42:30.407Z,18.10
2018-02-15T12:44:58.664Z,19.70
2018-02-15T12:47:26.144Z,16.50
2018-02-15T12:49:54.071Z,15.80
2018-02-15T12:52:22.289Z,17.23
2018-02-15T12:54:49.806Z,15.47
2018-02-15T12:57:17.829Z,18.10
2018-02-15T12:59:45.385Z,14.70
2018-02-15T13:02:12.849Z,16.70
2018-02-15T13:04:40.352Z,18.13
2018-02-15T13:07:07.829Z,18.30
2018-02-15T13:09:35.323Z,16.40
2018-02-15T13:12:02.791Z,15.73
2018-02-15T13:14:30.278Z,13.33
2018-02-15T13:16:57.766Z,16.17
2018-02-15T13:19:37.222Z,13.80
2018-02-15T13:22:04.677Z,12.97
2018-02-15T13:24:32.185Z,16.17
2018-02-15T13:26:59.641Z,14.37
2018-02-15T13:29:27.154Z,13.43
2018-02-15T13:31:55.579Z,13.70
2018-02-15T13:34:23.394Z,15.50
2018-02-15T13:36:51.619Z,14.60
2018-02-15T13:39:19.122Z,13.97
2018-02-15T13:41:46.600Z,14.37
2018-02-15T13:44:14.088Z,15.97
2018-02-15T13:46:41.555Z,15.27
2018-02-15T13:49:09.058Z,13.13
2018-02-15T13:51:36.539Z,14.73
2018-02-15T13:54:04.015Z,15.77
2018-02-15T13:56:31.502Z,17.10
2018-02-15T13:58:58.982Z,14.77
2018-02-15T14:01:26.476Z,17.00
2018-02-15T14:03:54.762Z,18.03
2018-02-15T14:06:22.233Z,16.37
2018-02-15T14:08:49.723Z,14.03
2018-02-15T14:11:17.179Z,17.70
2018-02-15T14:13:44.681Z,16.83
2018-02-15T14:16:12.170Z,20.07
2018-02-15T14:18:39.757Z,15.57
2018-02-15T14:21:07.214Z,15.30
2018-02-15T14:23:34.711Z,17.07
2018-02-15T14:26:02.167Z,17.73
2018-02-15T14:28:29.677Z,16.07
2018-02-15T14:30:57.158Z,23.50
2018-02-15T14:33:25.324Z,15.87
2018-02-15T14:35:53.004Z,15.17
2018-02-15T14:38:20.463Z,18.40
2018-02-15T14:40:48.682Z,19.07
2018-02-15T14:43:16.147Z,17.03
2018-02-15T14:45:44.633Z,15.97
2018-02-15T14:48:13.685Z,19.13
2018-02-15T14:50:41.181Z,17.40
2018-02-15T14:53:08.744Z,17.60
2018-02-15T14:55:36.962Z,17.33
2018-02-15T14:58:04.475Z,16.67
2018-02-15T15:00:32.222Z,21.77
2018-02-15T15:02:59.743Z,24.83
2018-02-15T15:05:27.209Z,17.07
2018-02-15T15:07:54.818Z,16.73
2018-02-15T15:10:22.282Z,18.13
2018-02-15T15:12:49.770Z,16.77
2018-02-15T15:15:17.328Z,17.17
2018-02-15T15:17:44.790Z,19.23
2018-02-15T15:20:13.034Z,16.93
2018-02-15T15:22:40.591Z,19.00
2018-02-15T15:25:08.055Z,18.83
2018-02-15T15:27:35.513Z,18.30
2018-02-15T15:30:02.966Z,17.87
2018-02-15T15:32:30.450Z,15.43
2018-02-15T15:34:57.929Z,18.83
2018-02-15T15:37:25.415Z,18.70
2018-02-15T15:39:52.907Z,20.37
2018-02-15T15:42:20.359Z,20.77
2018-02-15T15:44:47.858Z,21.60
2018-02-15T15:47:15.431Z,23.97
2018-02-15T15:49:42.914Z,21.50
2018-02-15T15:52:10.397Z,24.10
2018-02-15T15:54:37.922Z,22.63
2018-02-15T15:57:06.171Z,28.80
2018-02-15T15:59:33.658Z,27.80
2018-02-15T16:02:01.151Z,23.80
2018-02-15T16:04:28.661Z,30.43
2018-02-15T16:06:56.882Z,29.07
2018-02-15T16:09:24.405Z,29.40
2018-02-15T16:11:52.683Z,31.43
2018-02-15T16:14:20.182Z,31.50
2018-02-15T16:16:47.646Z,33.93
2018-02-15T16:19:15.143Z,35.70
2018-02-15T16:21:42.632Z,38.57
2018-02-15T16:24:10.115Z,41.00
2018-02-15T16:26:37.577Z,33.17
2018-02-15T16:29:05.040Z,41.87
2018-02-15T16:31:32.555Z,41.03
2018-02-15T16:34:00.019Z,45.93
2018-02-15T16:36:27.490Z,50.60
2018-02-15T16:38:54.955Z,44.30
2018-02-15T16:41:23.274Z,45.17
2018-02-15T16:43:51.044Z,44.20
2018-02-15T16:46:18.571Z,53.87
2018-02-15T16:48:46.034Z,58.67
2018-02-15T16:51:13.495Z,55.37
2018-02-15T16:53:40.964Z,54.17
2018-02-15T16:56:09.377Z,63.10
2018-02-15T16:58:36.885Z,51.03
2018-02-15T17:01:04.342Z,60.23
2018-02-15T17:03:31.820Z,54.47
2018-02-15T17:06:00.808Z,50.67
2018-02-15T17:08:29.079Z,60.60
2018-02-15T17:10:56.983Z,58.90
2018-02-15T17:13:24.472Z,60.27
2018-02-15T17:15:52.801Z,52.70
2018-02-15T17:18:21.681Z,54.40
2018-02-15T17:20:49.405Z,53.53
2018-02-15T17:23:17.187Z,58.13
2018-02-15T17:25:44.690Z,79.43
2018-02-15T17:28:12.211Z,59.30
2018-02-15T17:30:39.790Z,62.60
2018-02-15T17:33:07.246Z,66.87
2018-02-15T17:35:34.724Z,59.67
2018-02-15T17:38:02.238Z,61.00
2018-02-15T17:40:29.828Z,61.67
2018-02-15T17:42:57.292Z,63.17
2018-02-15T17:45:24.759Z,65.17
2018-02-15T17:47:52.273Z,64.67
2018-02-15T17:50:19.847Z,67.17
2018-02-15T17:52:47.307Z,70.97
2018-02-15T17:55:14.772Z,64.77
2018-02-15T17:57:42.295Z,68.60
2018-02-15T18:00:09.759Z,64.13
2018-02-15T18:02:37.278Z,67.43
2018-02-15T18:05:04.754Z,64.33
2018-02-15T18:07:32.321Z,59.60
2018-02-15T18:09:59.796Z,63.80
2018-02-15T18:12:27.283Z,62.17
2018-02-15T18:14:54.771Z,63.23
2018-02-15T18:17:22.238Z,64.07
2018-02-15T18:19:49.732Z,67.90
2018-02-15T18:22:17.198Z,62.73
2018-02-15T18:24:44.690Z,60.83
2018-02-15T18:27:12.147Z,66.07
2018-02-15T18:29:39.611Z,56.73
2018-02-15T18:32:07.134Z,59.63
2018-02-15T18:34:34.598Z,62.40
2018-02-15T18:37:02.094Z,65.50
2018-02-15T18:39:29.585Z,61.20
2018-02-15T18:41:57.049Z,61.07
2018-02-15T18:44:24.530Z,73.07
2018-02-15T18:46:52.186Z,63.50
2018-02-15T18:49:19.709Z,76.97
2018-02-15T18:51:47.163Z,68.77
2018-02-15T18:54:14.639Z,67.67
2018-02-15T18:56:42.100Z,76.00
2018-02-15T18:59:10.378Z,82.83
2018-02-15T19:01:37.830Z,73.40
2018-02-15T19:04:05.313Z,72.20
2018-02-15T19:06:32.770Z,64.80
2018-02-15T19:09:00.993Z,71.30
2018-02-15T19:11:28.450Z,72.27
2018-02-15T19:13:55.910Z,66.13
2018-02-15T19:16:23.385Z,74.10
2018-02-15T19:18:52.329Z,72.43
2018-02-15T19:21:19.793Z,70.03
2018-02-15T19:23:47.255Z,69.33
2018-02-15T19:26:15.486Z,82.27
2018-02-15T19:28:43.710Z,81.77
2018-02-15T19:31:11.179Z,77.57
2018-02-15T19:33:38.673Z,71.23
2018-02-15T19:36:06.143Z,75.77
2018-02-15T19:38:33.597Z,70.17
2018-02-15T19:41:01.066Z,76.00
2018-02-15T19:43:29.303Z,70.13
2018-02-15T19:45:56.956Z,78.03
2018-02-15T19:48:24.626Z,84.67
2018-02-15T19:50:52.604Z,74.50
2018-02-15T19:53:21.655Z,73.43
2018-02-15T19:55:49.339Z,80.67
2018-02-15T19:58:17.740Z,77.53
2018-02-15T20:00:45.343Z,77.30
2018-02-15T20:03:12.851Z,74.27
2018-02-15T20:05:40.422Z,77.93
2018-02-15T20:08:07.934Z,76.43
2018-02-15T20:10:35.507Z,82.00
2018-02-15T20:13:02.993Z,80.03
2018-02-15T20:15:37.094Z,81.53
2018-02-15T20:18:04.744Z,78.43
2018-02-15T20:20:33.172Z,77.87
2018-02-15T20:23:00.853Z,92.03
2018-02-15T20:25:29.302Z,81.33
2018-02-15T20:28:02.598Z,88.73
2018-02-15T20:30:30.058Z,79.80
2018-02-15T20:32:58.310Z,81.70
2018-02-15T20:35:25.790Z,77.50
2018-02-15T20:37:58.946Z,79.93
2018-02-15T20:40:32.005Z,70.93
2018-02-15T20:42:59.502Z,83.80
2018-02-15T20:45:26.994Z,81.03
2018-02-15T20:47:54.451Z,77.63
2018-02-15T20:50:28.514Z,75.67
2018-02-15T20:53:02.465Z,76.23
2018-02-15T20:55:36.430Z,74.90
2018-02-15T20:58:03.949Z,71.07
2018-02-15T21:00:31.415Z,74.60
2018-02-15T21:02:59.059Z,70.20
2018-02-15T21:05:26.750Z,75.07
2018-02-15T21:07:54.298Z,70.17
2018-02-15T21:10:22.685Z,67.33
2018-02-15T21:12:50.214Z,72.67
2018-02-15T21:15:18.464Z,63.90
2018-02-15T21:17:45.929Z,66.90
2018-02-15T21:20:13.446Z,65.37
2018-02-15T21:22:40.961Z,66.53
2018-02-15T21:25:09.212Z,70.80
2018-02-15T21:27:36.670Z,72.23
2018-02-15T21:30:04.176Z,73.63
2018-02-15T21:32:31.626Z,74.77
2018-02-15T21:34:59.094Z,81.93
2018-02-15T21:37:26.629Z,80.50
2018-02-15T21:39:54.084Z,77.40
2018-02-15T21:42:22.397Z,69.37
2018-02-15T21:44:49.848Z,73.37
2018-02-15T21:47:17.315Z,78.87
2018-02-15T21:49:45.558Z,79.13
2018-02-15T21:52:13.020Z,77.80
2018-02-15T21:54:40.577Z,73.43
2018-02-15T21:57:08.805Z,82.30
2018-02-15T21:59:36.314Z,70.87
2018-02-15T22:02:03.774Z,69.20
2018-02-15T22:04:31.234Z,74.80
2018-02-15T22:06:58.751Z,76.00
2018-02-15T22:09:26.209Z,73.50
2018-02-15T22:11:53.673Z,70.80
2018-02-15T22:14:21.141Z,71.43
2018-02-15T22:16:49.361Z,69.40
2018-02-15T22:19:16.881Z,79.40
2018-02-15T22:21:44.358Z,69.93
2018-02-15T22:24:11.830Z,74.67
2018-02-15T22:26:39.290Z,70.10
2018-02-15T22:29:06.742Z,81.13
2018-02-15T22:31:35.018Z,78.43
2018-02-15T22:34:02.474Z,79.70
2018-02-15T22:36:29.964Z,76.03
2018-02-15T22:38:57.447Z,72.73
2018-02-15T22:41:24.913Z,76.87
2018-02-15T22:43:52.418Z,73.47
2018-02-15T22:46:19.889Z,76.23
2018-02-15T22:48:47.346Z,73.97
2018-02-15T22:51:14.813Z,74.00
2018-02-15T22:53:42.271Z,72.57
2018-02-15T22:56:09.824Z,74.20
2018-02-15T22:58:37.296Z,73.50
2018-02-15T23:01:04.783Z,61.97
2018-02-15T23:03:32.237Z,59.00
2018-02-15T23:05:59.701Z,61.43
2018-02-15T23:08:27.232Z,62.37
2018-02-15T23:10:55.525Z,66.00
2018-02-15T23:13:22.986Z,66.83
2018-02-15T23:15:50.958Z,67.27
2018-02-15T23:18:18.414Z,66.87
2018-02-15T23:20:45.901Z,65.83
2018-02-15T23:23:13.357Z,67.13
2018-02-15T23:25:40.813Z,65.53
2018-02-15T23:28:08.282Z,71.17
2018-02-15T23:30:35.743Z,73.37
2018-02-15T23:33:03.299Z,71.00
2018-02-15T23:35:30.758Z,74.57
2018-02-15T23:37:58.257Z,68.37
2018-02-15T23:40:25.741Z,82.53
2018-02-15T23:42:53.205Z,83.93
2018-02-15T23:47:54.045Z,67.33
2018-02-15T23:50:21.511Z,66.50
2018-02-15T23:52:49.021Z,69.57
2018-02-15T23:55:16.485Z,67.30
2018-02-15T23:57:43.952Z,71.57
